PWSweather.com
Personal Weather Stations
Station Observations
KVAGLENALL
West Henrico, Glen Allen, VA 23060-6503

West HenricoGlen Allen, VA 23060-6503

Lat: 37.6554, Lon: -77.5693

Elevation: 273

Station Type: Davis Vantage Pro II

www.glenallenweather.com

High Low Average
Temperature 91.8°F33.2°C 71.7°F22.1°C 81.2°F27.3°C
Dew Point 70.9°F21.6°C 62.9°F17.2°C 66.0°F18.9°C
Winds 8.1 mph 13.0 kmh 0.1 mph 0.2 kmh 2.0 mph E3.2 kmh E
Wind Gusts 12.2 mph19.6 kmh 0.1 mph0.2 kmh 4.0 mph6.4 kmh
Humidity 81% 42% 61%
Pressure 29.99 in1015.6 mb 29.90 in1012.5 mb -
Precipitation 0.00 in0.0 mm - -
Hour Temp Dew Point Humidity Winds Wind Gusts Pressure Precip Precip Rate Daily Precip Total
12:00 AM 76.1°F24.5°C 66.0°F18.9°C 71% 0.1 mph SE0.2 kmh SE 0.1 mph0.2 kmh 29.95 in1014.2 mb 0.00 in0.0 mm 0.00 in0.0 mm 0.00 in0.0 mm
12:15 AM 75.3°F24.1°C 66.0°F18.9°C 73% 0.1 mph SE0.2 kmh SE 0.1 mph0.2 kmh 29.95 in1014.2 mb 0.00 in0.0 mm 0.00 in0.0 mm 0.00 in0.0 mm
12:30 AM 75.5°F24.2°C 66.6°F19.2°C 74% 0.1 mph ESE0.2 kmh ESE 0.1 mph0.2 kmh 29.95 in1014.2 mb 0.00 in0.0 mm 0.00 in0.0 mm 0.00 in0.0 mm
12:45 AM 75.9°F24.4°C 66.2°F19.0°C 72% 2.0 mph NE3.2 kmh NE 4.1 mph6.6 kmh 29.95 in1014.2 mb 0.00 in0.0 mm 0.00 in0.0 mm 0.00 in0.0 mm
01:00 AM 75.8°F24.3°C 66.1°F18.9°C 72% 2.0 mph NNE3.2 kmh NNE 4.1 mph6.6 kmh 29.95 in1014.2 mb 0.00 in0.0 mm 0.00 in0.0 mm 0.00 in0.0 mm
01:15 AM 75.7°F24.3°C 66.0°F18.9°C 72% 2.0 mph NNE3.2 kmh NNE 2.1 mph3.4 kmh 29.95 in1014.2 mb 0.00 in0.0 mm 0.00 in0.0 mm 0.00 in0.0 mm
01:30 AM 75.4°F24.1°C 65.7°F18.7°C 72% 1.0 mph ENE1.6 kmh ENE 4.1 mph6.6 kmh 29.95 in1014.2 mb 0.00 in0.0 mm 0.00 in0.0 mm 0.00 in0.0 mm
01:45 AM 75.6°F24.2°C 65.5°F18.6°C 71% 3.0 mph NNE4.8 kmh NNE 4.1 mph6.6 kmh 29.95 in1014.2 mb 0.00 in0.0 mm 0.00 in0.0 mm 0.00 in0.0 mm
02:00 AM 75.8°F24.3°C 64.9°F18.3°C 69% 4.1 mph N6.6 kmh N 4.1 mph6.6 kmh 29.95 in1014.2 mb 0.00 in0.0 mm 0.00 in0.0 mm 0.00 in0.0 mm
02:15 AM 75.9°F24.4°C 65.0°F18.3°C 69% 4.1 mph NNE6.6 kmh NNE 5.1 mph8.2 kmh 29.95 in1014.2 mb 0.00 in0.0 mm 0.00 in0.0 mm 0.00 in0.0 mm
02:30 AM 75.8°F24.3°C 64.5°F18.1°C 68% 1.0 mph NE1.6 kmh NE 3.1 mph5.0 kmh 29.95 in1014.2 mb 0.00 in0.0 mm 0.00 in0.0 mm 0.00 in0.0 mm
02:45 AM 75.6°F24.2°C 64.7°F18.2°C 69% 1.0 mph NE1.6 kmh NE 1.1 mph1.8 kmh 29.95 in1014.2 mb 0.00 in0.0 mm 0.00 in0.0 mm 0.00 in0.0 mm
03:00 AM 75.3°F24.1°C 65.2°F18.4°C 71% 5.1 mph N8.2 kmh N 6.1 mph9.8 kmh 29.95 in1014.2 mb 0.00 in0.0 mm 0.00 in0.0 mm 0.00 in0.0 mm
03:15 AM 75.1°F23.9°C 65.4°F18.6°C 72% 2.0 mph N3.2 kmh N 6.1 mph9.8 kmh 29.95 in1014.2 mb 0.00 in0.0 mm 0.00 in0.0 mm 0.00 in0.0 mm
03:30 AM 74.8°F23.8°C 65.2°F18.4°C 72% 3.0 mph NNE4.8 kmh NNE 5.1 mph8.2 kmh 29.95 in1014.2 mb 0.00 in0.0 mm 0.00 in0.0 mm 0.00 in0.0 mm
03:45 AM 74.3°F23.5°C 65.1°F18.4°C 73% 2.0 mph NNE3.2 kmh NNE 4.1 mph6.6 kmh 29.95 in1014.2 mb 0.00 in0.0 mm 0.00 in0.0 mm 0.00 in0.0 mm
04:00 AM 73.9°F23.3°C 65.1°F18.4°C 74% 1.0 mph NNE1.6 kmh NNE 2.1 mph3.4 kmh 29.95 in1014.2 mb 0.00 in0.0 mm 0.00 in0.0 mm 0.00 in0.0 mm
04:15 AM 73.5°F23.1°C 65.1°F18.4°C 75% 3.0 mph NE4.8 kmh NE 6.1 mph9.8 kmh 29.95 in1014.2 mb 0.00 in0.0 mm 0.00 in0.0 mm 0.00 in0.0 mm
04:30 AM 73.3°F22.9°C 64.5°F18.1°C 74% 0.1 mph NE0.2 kmh NE 2.1 mph3.4 kmh 29.96 in1014.6 mb 0.00 in0.0 mm 0.00 in0.0 mm 0.00 in0.0 mm
04:45 AM 73.4°F23.0°C 64.6°F18.1°C 74% 3.0 mph NNE4.8 kmh NNE 6.1 mph9.8 kmh 29.96 in1014.6 mb 0.00 in0.0 mm 0.00 in0.0 mm 0.00 in0.0 mm
05:00 AM 73.2°F22.9°C 64.4°F18.0°C 74% 3.0 mph NE4.8 kmh NE 6.1 mph9.8 kmh 29.96 in1014.6 mb 0.00 in0.0 mm 0.00 in0.0 mm 0.00 in0.0 mm
05:15 AM 73.0°F22.8°C 64.2°F17.9°C 74% 3.0 mph NE4.8 kmh NE 5.1 mph8.2 kmh 29.96 in1014.6 mb 0.00 in0.0 mm 0.00 in0.0 mm 0.00 in0.0 mm
05:30 AM 73.0°F22.8°C 64.2°F17.9°C 74% 2.0 mph NNE3.2 kmh NNE 3.1 mph5.0 kmh 29.97 in1014.9 mb 0.00 in0.0 mm 0.00 in0.0 mm 0.00 in0.0 mm
05:45 AM 73.0°F22.8°C 64.2°F17.9°C 74% 2.0 mph NE3.2 kmh NE 4.1 mph6.6 kmh 29.97 in1014.9 mb 0.00 in0.0 mm 0.00 in0.0 mm 0.00 in0.0 mm
06:00 AM 72.6°F22.6°C 63.8°F17.7°C 74% 2.0 mph NNE3.2 kmh NNE 9.1 mph14.6 kmh 29.96 in1014.6 mb 0.00 in0.0 mm 0.00 in0.0 mm 0.00 in0.0 mm
06:15 AM 72.2°F22.3°C 64.2°F17.9°C 76% 1.0 mph NE1.6 kmh NE 3.1 mph5.0 kmh 29.97 in1014.9 mb 0.00 in0.0 mm 0.00 in0.0 mm 0.00 in0.0 mm
06:30 AM 71.8°F22.1°C 63.8°F17.7°C 76% 5.1 mph E8.2 kmh E 10.1 mph16.3 kmh 29.97 in1014.9 mb 0.00 in0.0 mm 0.00 in0.0 mm 0.00 in0.0 mm
06:45 AM 71.7°F22.1°C 63.7°F17.6°C 76% 3.0 mph NE4.8 kmh NE 5.1 mph8.2 kmh 29.98 in1015.2 mb 0.00 in0.0 mm 0.00 in0.0 mm 0.00 in0.0 mm
07:00 AM 71.9°F22.2°C 63.5°F17.5°C 75% 0.1 mph ENE0.2 kmh ENE 2.1 mph3.4 kmh 29.98 in1015.2 mb 0.00 in0.0 mm 0.00 in0.0 mm 0.00 in0.0 mm
07:15 AM 72.3°F22.4°C 63.9°F17.7°C 75% 0.1 mph E0.2 kmh E 1.1 mph1.8 kmh 29.97 in1014.9 mb 0.00 in0.0 mm 0.00 in0.0 mm 0.00 in0.0 mm
07:30 AM 73.1°F22.8°C 63.5°F17.5°C 72% 1.0 mph NE1.6 kmh NE 5.1 mph8.2 kmh 29.98 in1015.2 mb 0.00 in0.0 mm 0.00 in0.0 mm 0.00 in0.0 mm
07:45 AM 74.0°F23.3°C 64.0°F17.8°C 71% 4.1 mph NE6.6 kmh NE 5.1 mph8.2 kmh 29.98 in1015.2 mb 0.00 in0.0 mm 0.00 in0.0 mm 0.00 in0.0 mm
08:00 AM 74.7°F23.7°C 63.8°F17.7°C 69% 4.1 mph NE6.6 kmh NE 7.1 mph11.4 kmh 29.99 in1015.6 mb 0.00 in0.0 mm 0.00 in0.0 mm 0.00 in0.0 mm
08:15 AM 75.7°F24.3°C 64.4°F18.0°C 68% 1.0 mph N1.6 kmh N 6.1 mph9.8 kmh 29.99 in1015.6 mb 0.00 in0.0 mm 0.00 in0.0 mm 0.00 in0.0 mm
08:30 AM 76.4°F24.7°C 64.2°F17.9°C 66% 4.1 mph N6.6 kmh N 6.1 mph9.8 kmh 29.99 in1015.6 mb 0.00 in0.0 mm 0.00 in0.0 mm 0.00 in0.0 mm
08:45 AM 78.0°F25.6°C 64.4°F18.0°C 63% 1.0 mph ENE1.6 kmh ENE 4.1 mph6.6 kmh 29.99 in1015.6 mb 0.00 in0.0 mm 0.00 in0.0 mm 0.00 in0.0 mm
09:00 AM 79.5°F26.4°C 63.9°F17.7°C 59% 3.0 mph ENE4.8 kmh ENE 7.1 mph11.4 kmh 29.99 in1015.6 mb 0.00 in0.0 mm 0.00 in0.0 mm 0.00 in0.0 mm
09:15 AM 80.4°F26.9°C 63.8°F17.7°C 57% 2.0 mph ENE3.2 kmh ENE 6.1 mph9.8 kmh 29.99 in1015.6 mb 0.00 in0.0 mm 0.00 in0.0 mm 0.00 in0.0 mm
09:30 AM 81.5°F27.5°C 64.8°F18.2°C 57% 1.0 mph E1.6 kmh E 3.1 mph5.0 kmh 29.99 in1015.6 mb 0.00 in0.0 mm 0.00 in0.0 mm 0.00 in0.0 mm
09:45 AM 82.1°F27.8°C 65.9°F18.8°C 58% 3.0 mph NNE4.8 kmh NNE 7.1 mph11.4 kmh 29.99 in1015.6 mb 0.00 in0.0 mm 0.00 in0.0 mm 0.00 in0.0 mm
10:00 AM 82.8°F28.2°C 64.5°F18.1°C 54% 3.0 mph E4.8 kmh E 10.1 mph16.3 kmh 29.99 in1015.6 mb 0.00 in0.0 mm 0.00 in0.0 mm 0.00 in0.0 mm
10:15 AM 83.2°F28.4°C 65.9°F18.8°C 56% 3.0 mph NE4.8 kmh NE 4.1 mph6.6 kmh 29.99 in1015.6 mb 0.00 in0.0 mm 0.00 in0.0 mm 0.00 in0.0 mm
10:30 AM 83.8°F28.8°C 63.2°F17.3°C 50% 1.0 mph NNE1.6 kmh NNE 6.1 mph9.8 kmh 29.99 in1015.6 mb 0.00 in0.0 mm 0.00 in0.0 mm 0.00 in0.0 mm
10:45 AM 84.1°F28.9°C 62.9°F17.2°C 49% 0.1 mph E0.2 kmh E 5.1 mph8.2 kmh 29.99 in1015.6 mb 0.00 in0.0 mm 0.00 in0.0 mm 0.00 in0.0 mm
11:00 AM 84.7°F29.3°C 65.2°F18.4°C 52% 1.0 mph E1.6 kmh E 2.1 mph3.4 kmh 29.99 in1015.6 mb 0.00 in0.0 mm 0.00 in0.0 mm 0.00 in0.0 mm
11:15 AM 85.4°F29.7°C 65.3°F18.5°C 51% 3.0 mph ESE4.8 kmh ESE 4.1 mph6.6 kmh 29.99 in1015.6 mb 0.00 in0.0 mm 0.00 in0.0 mm 0.00 in0.0 mm
11:30 AM 85.5°F29.7°C 65.4°F18.6°C 51% 0.1 mph NE0.2 kmh NE 2.1 mph3.4 kmh 29.99 in1015.6 mb 0.00 in0.0 mm 0.00 in0.0 mm 0.00 in0.0 mm
11:45 AM 86.2°F30.1°C 64.3°F17.9°C 48% 8.1 mph NNE13.0 kmh NNE 8.1 mph13.0 kmh 29.99 in1015.6 mb 0.00 in0.0 mm 0.00 in0.0 mm 0.00 in0.0 mm
12:00 PM 85.8°F29.9°C 65.1°F18.4°C 50% 2.0 mph ENE3.2 kmh ENE 9.1 mph14.6 kmh 29.99 in1015.6 mb 0.00 in0.0 mm 0.00 in0.0 mm 0.00 in0.0 mm
12:15 PM 86.6°F30.3°C 65.8°F18.8°C 50% 4.1 mph NE6.6 kmh NE 7.1 mph11.4 kmh 29.98 in1015.2 mb 0.00 in0.0 mm 0.00 in0.0 mm 0.00 in0.0 mm
12:30 PM 86.9°F30.5°C 67.8°F19.9°C 53% 0.1 mph NE0.2 kmh NE 6.1 mph9.8 kmh 29.98 in1015.2 mb 0.00 in0.0 mm 0.00 in0.0 mm 0.00 in0.0 mm
12:45 PM 87.8°F31.0°C 65.7°F18.7°C 48% 0.1 mph NE0.2 kmh NE 4.1 mph6.6 kmh 29.97 in1014.9 mb 0.00 in0.0 mm 0.00 in0.0 mm 0.00 in0.0 mm
01:00 PM 87.6°F30.9°C 65.5°F18.6°C 48% 0.1 mph NE0.2 kmh NE 5.1 mph8.2 kmh 29.97 in1014.9 mb 0.00 in0.0 mm 0.00 in0.0 mm 0.00 in0.0 mm
01:15 PM 87.4°F30.8°C 63.5°F17.5°C 45% 0.1 mph ESE0.2 kmh ESE 4.1 mph6.6 kmh 29.97 in1014.9 mb 0.00 in0.0 mm 0.00 in0.0 mm 0.00 in0.0 mm
01:30 PM 87.2°F30.7°C 65.2°F18.4°C 48% 2.0 mph SE3.2 kmh SE 4.1 mph6.6 kmh 29.96 in1014.6 mb 0.00 in0.0 mm 0.00 in0.0 mm 0.00 in0.0 mm
01:45 PM 86.8°F30.4°C 63.6°F17.6°C 46% 1.0 mph ESE1.6 kmh ESE 1.1 mph1.8 kmh 29.96 in1014.6 mb 0.00 in0.0 mm 0.00 in0.0 mm 0.00 in0.0 mm
02:00 PM 87.6°F30.9°C 64.3°F17.9°C 46% 0.1 mph SE0.2 kmh SE 4.1 mph6.6 kmh 29.95 in1014.2 mb 0.00 in0.0 mm 0.00 in0.0 mm 0.00 in0.0 mm
02:15 PM 89.2°F31.8°C 65.8°F18.8°C 46% 0.1 mph ESE0.2 kmh ESE 3.1 mph5.0 kmh 29.95 in1014.2 mb 0.00 in0.0 mm 0.00 in0.0 mm 0.00 in0.0 mm
02:30 PM 89.2°F31.8°C 63.8°F17.7°C 43% 0.1 mph NNW0.2 kmh NNW 2.1 mph3.4 kmh 29.94 in1013.9 mb 0.00 in0.0 mm 0.00 in0.0 mm 0.00 in0.0 mm
02:45 PM 88.7°F31.5°C 65.9°F18.8°C 47% 0.1 mph SSE0.2 kmh SSE 2.1 mph3.4 kmh 29.94 in1013.9 mb 0.00 in0.0 mm 0.00 in0.0 mm 0.00 in0.0 mm
03:00 PM 88.0°F31.1°C 64.1°F17.8°C 45% 0.1 mph N0.2 kmh N 3.1 mph5.0 kmh 29.94 in1013.9 mb 0.00 in0.0 mm 0.00 in0.0 mm 0.00 in0.0 mm
03:15 PM 88.1°F31.2°C 65.4°F18.6°C 47% 2.0 mph NE3.2 kmh NE 3.1 mph5.0 kmh 29.93 in1013.5 mb 0.00 in0.0 mm 0.00 in0.0 mm 0.00 in0.0 mm
03:30 PM 88.5°F31.4°C 67.5°F19.7°C 50% 0.1 mph NE0.2 kmh NE 1.1 mph1.8 kmh 29.93 in1013.5 mb 0.00 in0.0 mm 0.00 in0.0 mm 0.00 in0.0 mm
03:45 PM 90.1°F32.3°C 65.2°F18.4°C 44% 0.1 mph SE0.2 kmh SE 2.1 mph3.4 kmh 29.93 in1013.5 mb 0.00 in0.0 mm 0.00 in0.0 mm 0.00 in0.0 mm
04:00 PM 91.2°F32.9°C 65.6°F18.7°C 43% 0.1 mph ENE0.2 kmh ENE 3.1 mph5.0 kmh 29.92 in1013.2 mb 0.00 in0.0 mm 0.00 in0.0 mm 0.00 in0.0 mm
04:15 PM 91.1°F32.8°C 64.8°F18.2°C 42% 1.0 mph NNE1.6 kmh NNE 1.1 mph1.8 kmh 29.92 in1013.2 mb 0.00 in0.0 mm 0.00 in0.0 mm 0.00 in0.0 mm
04:30 PM 91.8°F33.2°C 65.4°F18.6°C 42% 4.1 mph E6.6 kmh E 4.1 mph6.6 kmh 29.91 in1012.9 mb 0.00 in0.0 mm 0.00 in0.0 mm 0.00 in0.0 mm
04:45 PM 91.1°F32.8°C 65.5°F18.6°C 43% 1.0 mph E1.6 kmh E 2.1 mph3.4 kmh 29.92 in1013.2 mb 0.00 in0.0 mm 0.00 in0.0 mm 0.00 in0.0 mm
05:00 PM 90.4°F32.4°C 64.2°F17.9°C 42% 0.1 mph E0.2 kmh E 4.1 mph6.6 kmh 29.91 in1012.9 mb 0.00 in0.0 mm 0.00 in0.0 mm 0.00 in0.0 mm
05:15 PM 88.9°F31.6°C 64.9°F18.3°C 45% 0.1 mph E0.2 kmh E 1.1 mph1.8 kmh 29.91 in1012.9 mb 0.00 in0.0 mm 0.00 in0.0 mm 0.00 in0.0 mm
05:30 PM 88.2°F31.2°C 64.9°F18.3°C 46% 1.0 mph ESE1.6 kmh ESE 2.1 mph3.4 kmh 29.91 in1012.9 mb 0.00 in0.0 mm 0.00 in0.0 mm 0.00 in0.0 mm
05:45 PM 87.5°F30.8°C 64.8°F18.2°C 47% 1.0 mph E1.6 kmh E 2.1 mph3.4 kmh 29.90 in1012.5 mb 0.00 in0.0 mm 0.00 in0.0 mm 0.00 in0.0 mm
06:00 PM 86.8°F30.4°C 65.4°F18.6°C 49% 0.1 mph NE0.2 kmh NE 1.1 mph1.8 kmh 29.91 in1012.9 mb 0.00 in0.0 mm 0.00 in0.0 mm 0.00 in0.0 mm
06:15 PM 86.0°F30.0°C 67.5°F19.7°C 54% 0.1 mph NE0.2 kmh NE 0.1 mph0.2 kmh 29.90 in1012.5 mb 0.00 in0.0 mm 0.00 in0.0 mm 0.00 in0.0 mm
06:30 PM 86.2°F30.1°C 66.0°F18.9°C 51% 0.1 mph NE0.2 kmh NE 2.1 mph3.4 kmh 29.91 in1012.9 mb 0.00 in0.0 mm 0.00 in0.0 mm 0.00 in0.0 mm
06:45 PM 86.4°F30.2°C 66.2°F19.0°C 51% 0.1 mph E0.2 kmh E 2.1 mph3.4 kmh 29.92 in1013.2 mb 0.00 in0.0 mm 0.00 in0.0 mm 0.00 in0.0 mm
07:00 PM 86.3°F30.2°C 66.7°F19.3°C 52% 2.0 mph ESE3.2 kmh ESE 3.1 mph5.0 kmh 29.92 in1013.2 mb 0.00 in0.0 mm 0.00 in0.0 mm 0.00 in0.0 mm
07:15 PM 86.1°F30.1°C 65.3°F18.5°C 50% 0.1 mph ESE0.2 kmh ESE 3.1 mph5.0 kmh 29.92 in1013.2 mb 0.00 in0.0 mm 0.00 in0.0 mm 0.00 in0.0 mm
07:30 PM 85.9°F29.9°C 65.7°F18.7°C 51% 0.1 mph ESE0.2 kmh ESE 2.1 mph3.4 kmh 29.92 in1013.2 mb 0.00 in0.0 mm 0.00 in0.0 mm 0.00 in0.0 mm
07:45 PM 85.5°F29.7°C 66.5°F19.2°C 53% 0.1 mph ESE0.2 kmh ESE 1.1 mph1.8 kmh 29.93 in1013.5 mb 0.00 in0.0 mm 0.00 in0.0 mm 0.00 in0.0 mm
08:00 PM 84.9°F29.4°C 69.0°F20.6°C 59% 2.0 mph SSW3.2 kmh SSW 9.1 mph14.6 kmh 29.92 in1013.2 mb 0.00 in0.0 mm 0.00 in0.0 mm 0.00 in0.0 mm
08:15 PM 84.3°F29.1°C 69.4°F20.8°C 61% 2.0 mph S3.2 kmh S 4.1 mph6.6 kmh 29.93 in1013.5 mb 0.00 in0.0 mm 0.00 in0.0 mm 0.00 in0.0 mm
08:30 PM 83.8°F28.8°C 70.4°F21.3°C 64% 2.0 mph SSE3.2 kmh SSE 5.1 mph8.2 kmh 29.93 in1013.5 mb 0.00 in0.0 mm 0.00 in0.0 mm 0.00 in0.0 mm
08:45 PM 83.6°F28.7°C 70.6°F21.4°C 65% 2.0 mph SSE3.2 kmh SSE 4.1 mph6.6 kmh 29.94 in1013.9 mb 0.00 in0.0 mm 0.00 in0.0 mm 0.00 in0.0 mm
09:00 PM 83.6°F28.7°C 70.6°F21.4°C 65% 2.0 mph SSE3.2 kmh SSE 5.1 mph8.2 kmh 29.94 in1013.9 mb 0.00 in0.0 mm 0.00 in0.0 mm 0.00 in0.0 mm
09:15 PM 83.4°F28.6°C 70.9°F21.6°C 66% 1.0 mph SE1.6 kmh SE 5.1 mph8.2 kmh 29.95 in1014.2 mb 0.00 in0.0 mm 0.00 in0.0 mm 0.00 in0.0 mm
09:30 PM 82.8°F28.2°C 70.3°F21.3°C 66% 2.0 mph SE3.2 kmh SE 6.1 mph9.8 kmh 29.95 in1014.2 mb 0.00 in0.0 mm 0.00 in0.0 mm 0.00 in0.0 mm
09:45 PM 82.0°F27.8°C 70.4°F21.3°C 68% 5.1 mph ESE8.2 kmh ESE 12.2 mph19.6 kmh 29.96 in1014.6 mb 0.00 in0.0 mm 0.00 in0.0 mm 0.00 in0.0 mm
10:00 PM 80.5°F26.9°C 69.8°F21.0°C 70% 4.1 mph ESE6.6 kmh ESE 9.1 mph14.6 kmh 29.97 in1014.9 mb 0.00 in0.0 mm 0.00 in0.0 mm 0.00 in0.0 mm
10:15 PM 79.8°F26.6°C 70.0°F21.1°C 72% 0.1 mph E0.2 kmh E 1.1 mph1.8 kmh 29.97 in1014.9 mb 0.00 in0.0 mm 0.00 in0.0 mm 0.00 in0.0 mm
10:30 PM 79.4°F26.3°C 70.4°F21.3°C 74% 1.0 mph E1.6 kmh E 1.1 mph1.8 kmh 29.96 in1014.6 mb 0.00 in0.0 mm 0.00 in0.0 mm 0.00 in0.0 mm
10:45 PM 79.0°F26.1°C 70.0°F21.1°C 74% 0.1 mph ESE0.2 kmh ESE 3.1 mph5.0 kmh 29.97 in1014.9 mb 0.00 in0.0 mm 0.00 in0.0 mm 0.00 in0.0 mm
11:00 PM 78.9°F26.1°C 69.9°F21.1°C 74% 2.0 mph E3.2 kmh E 3.1 mph5.0 kmh 29.97 in1014.9 mb 0.00 in0.0 mm 0.00 in0.0 mm 0.00 in0.0 mm
11:15 PM 78.5°F25.8°C 69.1°F20.6°C 73% 2.0 mph SE3.2 kmh SE 4.1 mph6.6 kmh 29.98 in1015.2 mb 0.00 in0.0 mm 0.00 in0.0 mm 0.00 in0.0 mm
11:30 PM 78.1°F25.6°C 69.1°F20.6°C 74% 2.0 mph SE3.2 kmh SE 3.1 mph5.0 kmh 29.98 in1015.2 mb 0.00 in0.0 mm 0.00 in0.0 mm 0.00 in0.0 mm
11:45 PM 77.8°F25.4°C 69.2°F20.7°C 75% 3.0 mph S4.8 kmh S 6.1 mph9.8 kmh 29.97 in1014.9 mb 0.00 in0.0 mm 0.00 in0.0 mm 0.00 in0.0 mm